createdAt,value
2018-07-05T00:00:15.448Z,21.8
2018-07-05T00:01:17.063Z,21.8
2018-07-05T00:02:18.686Z,21.6
2018-07-05T00:03:20.296Z,21.7
2018-07-05T00:04:21.914Z,21.8
2018-07-05T00:05:23.539Z,21.7
2018-07-05T00:06:25.153Z,21.6
2018-07-05T00:07:26.774Z,21.8
2018-07-05T00:08:28.395Z,21.7
2018-07-05T00:09:30.008Z,21.7
2018-07-05T00:10:31.631Z,21.6
2018-07-05T00:11:33.243Z,21.6
2018-07-05T00:12:34.867Z,21.6
2018-07-05T00:13:36.482Z,21.5
2018-07-05T00:14:38.103Z,21.4
2018-07-05T00:15:39.722Z,21.5
2018-07-05T00:16:41.334Z,21.4
2018-07-05T00:17:42.950Z,21.4
2018-07-05T00:18:44.564Z,21.3
2018-07-05T00:19:46.187Z,21.3
2018-07-05T00:20:47.805Z,21.3
2018-07-05T00:21:50.285Z,21.3
2018-07-05T00:22:51.904Z,21.2
2018-07-05T00:23:53.518Z,21.2
2018-07-05T00:24:55.137Z,21.2
2018-07-05T00:25:56.751Z,21.2
2018-07-05T00:26:59.118Z,21.1
2018-07-05T00:28:00.740Z,21.0
2018-07-05T00:29:02.356Z,21.0
2018-07-05T00:30:03.971Z,21.0
2018-07-05T00:31:05.586Z,21.0
2018-07-05T00:32:07.206Z,21.0
2018-07-05T00:33:08.821Z,21.0
2018-07-05T00:34:10.438Z,20.9
2018-07-05T00:35:12.112Z,20.8
2018-07-05T00:36:13.723Z,20.9
2018-07-05T00:37:15.344Z,20.9
2018-07-05T00:38:16.956Z,20.7
2018-07-05T00:39:18.571Z,20.8
2018-07-05T00:40:20.192Z,20.8
2018-07-05T00:41:21.831Z,20.8
2018-07-05T00:42:23.451Z,20.8
2018-07-05T00:43:25.072Z,20.8
2018-07-05T00:44:26.683Z,20.8
2018-07-05T00:45:28.305Z,20.7
2018-07-05T00:46:29.917Z,20.6
2018-07-05T00:47:31.540Z,20.7
2018-07-05T00:48:33.160Z,20.7
2018-07-05T00:49:34.776Z,20.7
2018-07-05T00:50:36.398Z,20.6
2018-07-05T00:51:38.013Z,20.7
2018-07-05T00:52:39.635Z,20.7
2018-07-05T00:53:41.251Z,20.7
2018-07-05T00:54:42.873Z,20.7
2018-07-05T00:55:44.488Z,20.7
2018-07-05T00:56:46.114Z,20.7
2018-07-05T00:57:47.730Z,20.7
2018-07-05T00:58:49.344Z,20.6
2018-07-05T00:59:50.964Z,20.6
2018-07-05T01:00:52.579Z,20.7
2018-07-05T01:01:54.204Z,20.6
2018-07-05T01:02:55.826Z,20.7
2018-07-05T01:03:57.439Z,20.5
2018-07-05T01:04:59.061Z,20.6
2018-07-05T01:06:00.684Z,20.6
2018-07-05T01:07:02.292Z,20.6
2018-07-05T01:08:03.910Z,20.5
2018-07-05T01:09:05.527Z,20.5
2018-07-05T01:10:07.151Z,20.7
2018-07-05T01:11:08.765Z,20.5
2018-07-05T01:12:10.382Z,20.5
2018-07-05T01:13:12.003Z,20.5
2018-07-05T01:14:13.616Z,20.6
2018-07-05T01:15:15.236Z,20.5
2018-07-05T01:16:16.857Z,20.5
2018-07-05T01:17:18.474Z,20.4
2018-07-05T01:19:21.546Z,20.5
2018-07-05T01:20:23.172Z,20.5
2018-07-05T01:21:24.783Z,20.4
2018-07-05T01:22:26.407Z,20.4
2018-07-05T01:23:28.020Z,20.4
2018-07-05T01:24:30.273Z,20.3
2018-07-05T01:25:31.887Z,20.4
2018-07-05T01:26:33.501Z,20.4
2018-07-05T01:27:35.117Z,20.3
2018-07-05T01:28:36.737Z,20.3
2018-07-05T01:29:38.357Z,20.2
2018-07-05T01:30:39.980Z,20.2
2018-07-05T01:31:41.593Z,20.2
2018-07-05T01:32:43.210Z,20.2
2018-07-05T01:33:44.825Z,20.1
2018-07-05T01:34:46.445Z,20.1
2018-07-05T01:35:48.059Z,20.0
2018-07-05T01:36:49.682Z,20.1
2018-07-05T01:37:51.297Z,19.9
2018-07-05T01:38:52.917Z,20.0
2018-07-05T01:39:54.534Z,20.0
2018-07-05T01:40:56.154Z,20.0
2018-07-05T01:41:57.770Z,20.0
2018-07-05T01:42:59.385Z,20.1
2018-07-05T01:44:01.005Z,20.2
2018-07-05T01:45:02.623Z,20.2
2018-07-05T01:46:04.242Z,20.1
2018-07-05T01:47:05.861Z,20.2
2018-07-05T01:48:07.478Z,20.1
2018-07-05T01:49:09.094Z,20.2
2018-07-05T01:50:10.714Z,20.2
2018-07-05T01:51:12.334Z,20.2
2018-07-05T01:52:13.949Z,20.2
2018-07-05T01:53:15.564Z,20.1
2018-07-05T01:54:17.186Z,20.1
2018-07-05T01:55:18.807Z,20.2
2018-07-05T01:56:20.424Z,20.2
2018-07-05T01:57:22.038Z,20.2
2018-07-05T01:58:23.661Z,20.2
2018-07-05T01:59:25.296Z,20.2
2018-07-05T02:00:26.901Z,20.1
2018-07-05T02:01:28.517Z,20.2
2018-07-05T02:02:30.130Z,20.1
2018-07-05T02:03:31.747Z,20.2
2018-07-05T02:04:33.370Z,20.2
2018-07-05T02:05:34.987Z,20.1
2018-07-05T02:06:36.602Z,20.1
2018-07-05T02:07:38.219Z,20.2
2018-07-05T02:08:39.844Z,20.1
2018-07-05T02:09:41.461Z,20.1
2018-07-05T02:10:43.076Z,20.1
2018-07-05T02:11:44.689Z,20.1
2018-07-05T02:12:46.312Z,20.1
2018-07-05T02:13:47.932Z,20.1
2018-07-05T02:14:49.549Z,20.0
2018-07-05T02:15:51.176Z,20.0
2018-07-05T02:16:52.796Z,20.1
2018-07-05T02:17:54.416Z,20.0
2018-07-05T02:18:56.030Z,19.9
2018-07-05T02:19:57.646Z,20.0
2018-07-05T02:20:59.271Z,20.0
2018-07-05T02:22:00.883Z,19.9
2018-07-05T02:23:03.274Z,20.0
2018-07-05T02:24:04.895Z,19.9
2018-07-05T02:25:06.508Z,20.0
2018-07-05T02:26:08.128Z,19.9
2018-07-05T02:27:10.698Z,20.0
2018-07-05T02:28:12.320Z,19.9
2018-07-05T02:29:13.938Z,20.0
2018-07-05T02:30:15.564Z,19.9
2018-07-05T02:31:17.174Z,19.9
2018-07-05T02:32:18.793Z,19.9
2018-07-05T02:33:20.432Z,19.9
2018-07-05T02:34:22.046Z,19.8
2018-07-05T02:35:23.669Z,19.9
2018-07-05T02:36:25.289Z,19.8
2018-07-05T02:37:26.914Z,19.9
2018-07-05T02:38:29.056Z,19.9
2018-07-05T02:39:30.669Z,19.9
2018-07-05T02:40:32.288Z,19.9
2018-07-05T02:41:33.902Z,19.8
2018-07-05T02:42:35.525Z,19.9
2018-07-05T02:43:37.149Z,19.8
2018-07-05T02:44:38.759Z,19.9
2018-07-05T02:45:40.371Z,19.9
2018-07-05T02:46:41.992Z,19.8
2018-07-05T02:47:43.605Z,19.9
2018-07-05T02:48:45.223Z,19.9
2018-07-05T02:49:46.839Z,19.9
2018-07-05T02:50:48.457Z,19.9
2018-07-05T02:51:50.076Z,19.8
2018-07-05T02:52:52.643Z,19.8
2018-07-05T02:53:54.248Z,19.8
2018-07-05T02:54:55.865Z,19.8
2018-07-05T02:55:57.489Z,19.9
2018-07-05T02:56:59.107Z,19.9
2018-07-05T02:58:00.726Z,19.9
2018-07-05T02:59:02.343Z,19.9
2018-07-05T03:00:03.965Z,19.9
2018-07-05T03:01:05.588Z,19.9
2018-07-05T03:02:07.206Z,20.0
2018-07-05T03:03:08.821Z,19.9
2018-07-05T03:04:10.443Z,19.9
2018-07-05T03:05:12.057Z,19.9
2018-07-05T03:06:14.360Z,19.9
2018-07-05T03:07:15.982Z,19.9
2018-07-05T03:08:17.603Z,19.8
2018-07-05T03:09:19.221Z,20.0
2018-07-05T03:10:20.836Z,19.9
2018-07-05T03:11:23.068Z,20.0
2018-07-05T03:12:24.689Z,19.9
2018-07-05T03:13:26.312Z,19.9
2018-07-05T03:14:27.931Z,19.9
2018-07-05T03:15:29.550Z,19.9
2018-07-05T03:16:31.166Z,19.9
2018-07-05T03:17:32.784Z,19.9
2018-07-05T03:18:34.438Z,19.9
2018-07-05T03:19:36.061Z,19.9
2018-07-05T03:20:37.680Z,19.9
2018-07-05T03:21:39.297Z,19.8
2018-07-05T03:22:40.919Z,19.8
2018-07-05T03:23:42.537Z,19.9
2018-07-05T03:24:44.161Z,19.8
2018-07-05T03:25:45.777Z,19.9
2018-07-05T03:26:47.402Z,20.1
2018-07-05T03:27:49.018Z,20.0
2018-07-05T03:28:50.643Z,19.9
2018-07-05T03:29:52.258Z,19.9
2018-07-05T03:30:53.883Z,20.0
2018-07-05T03:31:55.499Z,20.0
2018-07-05T03:32:57.123Z,20.0
2018-07-05T03:33:58.746Z,20.0
2018-07-05T03:35:00.370Z,20.0
2018-07-05T03:36:02.516Z,19.9
2018-07-05T03:37:04.137Z,19.9
2018-07-05T03:38:05.757Z,20.0
2018-07-05T03:39:07.377Z,20.1
2018-07-05T03:40:08.998Z,20.0
2018-07-05T03:41:10.618Z,20.1
2018-07-05T03:42:12.245Z,20.2
2018-07-05T03:43:13.857Z,20.2
2018-07-05T03:44:15.482Z,20.2
2018-07-05T03:45:17.104Z,20.3
2018-07-05T03:46:18.728Z,20.3
2018-07-05T03:47:20.355Z,20.3
2018-07-05T03:48:21.977Z,20.3
2018-07-05T03:49:23.595Z,20.3
2018-07-05T03:50:25.215Z,20.4
2018-07-05T03:51:26.861Z,20.3
2018-07-05T03:52:28.456Z,20.3
2018-07-05T03:53:30.078Z,20.4
2018-07-05T03:54:31.702Z,20.4
2018-07-05T03:55:33.318Z,20.4
2018-07-05T03:56:34.967Z,20.5
2018-07-05T03:57:36.559Z,20.4
2018-07-05T03:58:38.175Z,20.4
2018-07-05T03:59:39.802Z,20.4
2018-07-05T04:00:41.418Z,20.4
2018-07-05T04:01:43.038Z,20.6
2018-07-05T04:02:44.705Z,20.5
2018-07-05T04:03:46.287Z,20.4
2018-07-05T04:04:47.909Z,20.5
2018-07-05T04:05:49.533Z,20.4
2018-07-05T04:06:51.152Z,20.5
2018-07-05T04:07:52.776Z,20.5
2018-07-05T04:08:54.400Z,20.5
2018-07-05T04:09:56.023Z,20.5
2018-07-05T04:10:57.647Z,20.5
2018-07-05T04:11:59.264Z,20.5
2018-07-05T04:13:00.890Z,20.5
2018-07-05T04:14:02.509Z,20.5
2018-07-05T04:15:04.130Z,20.5
2018-07-05T04:16:05.759Z,20.5
2018-07-05T04:17:07.383Z,20.5
2018-07-05T04:18:09.011Z,20.5
2018-07-05T04:19:11.304Z,20.5
2018-07-05T04:20:12.922Z,20.4
2018-07-05T04:21:14.542Z,20.5
2018-07-05T04:22:16.169Z,20.5
2018-07-05T04:23:17.780Z,20.5
2018-07-05T04:24:19.411Z,20.5
2018-07-05T04:25:21.033Z,20.6
2018-07-05T04:26:22.656Z,20.6
2018-07-05T04:27:24.277Z,20.6
2018-07-05T04:28:25.903Z,20.7
2018-07-05T04:29:27.526Z,20.7
2018-07-05T04:30:29.153Z,20.7
2018-07-05T04:31:30.775Z,20.8
2018-07-05T04:32:32.403Z,20.8
2018-07-05T04:33:34.072Z,20.8
2018-07-05T04:34:35.691Z,20.8
2018-07-05T04:35:37.317Z,20.9
2018-07-05T04:36:38.941Z,20.8
2018-07-05T04:37:40.560Z,21.0
2018-07-05T04:38:42.186Z,21.0
2018-07-05T04:39:43.807Z,21.0
2018-07-05T04:40:45.430Z,21.0
2018-07-05T04:41:47.049Z,21.0
2018-07-05T04:42:48.678Z,21.1
2018-07-05T04:43:50.293Z,21.0
2018-07-05T04:44:51.925Z,21.0
2018-07-05T04:45:53.539Z,21.1
2018-07-05T04:46:55.166Z,21.0
2018-07-05T04:47:56.856Z,21.1
2018-07-05T04:48:58.413Z,21.0
2018-07-05T04:50:00.048Z,21.0
2018-07-05T04:51:01.654Z,21.2
2018-07-05T04:52:04.093Z,21.2
2018-07-05T04:53:05.712Z,21.1
2018-07-05T04:54:07.347Z,21.2
2018-07-05T04:55:08.960Z,21.2
2018-07-05T04:56:10.583Z,21.2
2018-07-05T04:57:12.244Z,21.2
2018-07-05T04:58:13.875Z,21.2
2018-07-05T04:59:15.492Z,21.3
2018-07-05T05:00:17.114Z,21.3
2018-07-05T05:01:18.739Z,21.3
2018-07-05T05:02:20.405Z,21.4
2018-07-05T05:03:21.986Z,21.3
2018-07-05T05:04:23.608Z,21.3
2018-07-05T05:05:25.231Z,21.3
2018-07-05T05:06:26.854Z,21.4
2018-07-05T05:07:28.481Z,21.4
2018-07-05T05:08:30.106Z,21.4
2018-07-05T05:09:32.592Z,21.4
2018-07-05T05:10:34.214Z,21.4
2018-07-05T05:11:35.841Z,21.4
2018-07-05T05:12:37.462Z,21.6
2018-07-05T05:13:39.090Z,21.5
2018-07-05T05:14:40.714Z,21.7
2018-07-05T05:15:42.335Z,21.7
2018-07-05T05:16:43.955Z,21.8
2018-07-05T05:17:45.579Z,21.9
2018-07-05T05:18:47.200Z,21.9
2018-07-05T05:19:48.827Z,22.0
2018-07-05T05:20:50.448Z,22.1
2018-07-05T05:21:52.072Z,22.2
2018-07-05T05:22:53.695Z,22.3
2018-07-05T05:23:55.314Z,22.3
2018-07-05T05:24:56.944Z,22.2
2018-07-05T05:25:58.563Z,22.2
2018-07-05T05:27:00.192Z,22.2
2018-07-05T05:28:01.812Z,22.1
2018-07-05T05:29:03.432Z,22.0
2018-07-05T05:30:05.123Z,22.2
2018-07-05T05:31:06.679Z,22.1
2018-07-05T05:32:08.306Z,22.1
2018-07-05T05:33:09.933Z,22.1
2018-07-05T05:34:11.556Z,22.2
2018-07-05T05:35:13.182Z,22.2
2018-07-05T05:36:14.804Z,22.3
2018-07-05T05:37:16.435Z,22.4
2018-07-05T05:38:18.055Z,22.4
2018-07-05T05:39:19.681Z,22.5
2018-07-05T05:40:25.765Z,22.5
2018-07-05T05:41:31.578Z,22.7
2018-07-05T05:42:37.199Z,22.7
2018-07-05T05:43:39.073Z,22.9
2018-07-05T05:44:40.708Z,22.8
2018-07-05T05:45:43.192Z,23.0
2018-07-05T05:46:44.813Z,22.9
2018-07-05T05:47:46.468Z,23.0
2018-07-05T05:48:48.062Z,23.0
2018-07-05T05:49:49.684Z,23.1
2018-07-05T05:50:51.308Z,23.0
2018-07-05T05:51:52.932Z,23.2
2018-07-05T05:52:54.558Z,23.1
2018-07-05T05:53:56.183Z,23.2
2018-07-05T05:54:57.815Z,23.2
2018-07-05T05:55:59.479Z,23.2
2018-07-05T05:57:01.104Z,23.2
2018-07-05T05:58:02.738Z,23.2
2018-07-05T05:59:04.368Z,23.2
2018-07-05T06:00:05.991Z,23.2
2018-07-05T06:01:07.613Z,23.2
2018-07-05T06:02:09.236Z,23.3
2018-07-05T06:03:10.866Z,23.2
2018-07-05T06:04:12.495Z,23.3
2018-07-05T06:05:14.119Z,23.4
2018-07-05T06:06:15.751Z,23.4
2018-07-05T06:07:17.978Z,23.4
2018-07-05T06:08:19.598Z,23.5
2018-07-05T06:09:21.230Z,23.5
2018-07-05T06:10:22.851Z,23.5
2018-07-05T06:11:24.478Z,23.5
2018-07-05T06:12:26.100Z,23.5
2018-07-05T06:13:27.730Z,23.6
2018-07-05T06:14:29.360Z,23.6
2018-07-05T06:15:30.978Z,23.7
2018-07-05T06:16:32.606Z,23.7
2018-07-05T06:17:34.222Z,23.7
2018-07-05T06:18:35.873Z,23.9
2018-07-05T06:19:37.484Z,23.9
2018-07-05T06:20:39.098Z,23.9
2018-07-05T06:21:40.721Z,24.0
2018-07-05T06:22:42.350Z,24.1
2018-07-05T06:23:43.976Z,24.2
2018-07-05T06:24:45.603Z,24.3
2018-07-05T06:25:47.229Z,24.3
2018-07-05T06:26:48.849Z,24.4
2018-07-05T06:27:50.477Z,24.5
2018-07-05T06:28:52.103Z,24.5
2018-07-05T06:29:53.721Z,24.5
2018-07-05T06:30:55.345Z,24.4
2018-07-05T06:31:56.969Z,24.3
2018-07-05T06:32:58.598Z,24.2
2018-07-05T06:34:00.243Z,24.2
2018-07-05T06:35:01.857Z,24.1
2018-07-05T06:36:03.477Z,24.0
2018-07-05T06:37:05.097Z,23.9
2018-07-05T06:38:06.719Z,23.9
2018-07-05T06:39:08.341Z,23.9
2018-07-05T06:40:09.964Z,23.8
2018-07-05T06:41:11.585Z,23.7
2018-07-05T06:42:13.212Z,23.6
2018-07-05T06:43:14.837Z,23.5
2018-07-05T06:44:16.452Z,23.4
2018-07-05T06:45:18.076Z,23.3
2018-07-05T06:46:19.704Z,23.2
2018-07-05T06:47:21.380Z,22.9
2018-07-05T06:48:22.953Z,23.0
2018-07-05T06:49:24.581Z,22.8
2018-07-05T06:50:26.201Z,22.6
2018-07-05T06:51:27.827Z,22.4
2018-07-05T06:52:29.450Z,22.3
2018-07-05T06:53:31.068Z,22.1
2018-07-05T06:54:32.702Z,21.9
2018-07-05T06:55:34.334Z,21.7
2018-07-05T06:56:35.963Z,21.6
2018-07-05T06:57:37.585Z,21.7
2018-07-05T06:58:39.203Z,21.4
2018-07-05T06:59:40.825Z,21.3
2018-07-05T07:00:42.453Z,21.2
2018-07-05T07:01:44.076Z,21.2
2018-07-05T07:02:45.708Z,21.1
2018-07-05T07:03:47.327Z,21.0
2018-07-05T07:04:48.954Z,20.8
2018-07-05T07:05:50.580Z,20.8
2018-07-05T07:06:52.206Z,20.6
2018-07-05T07:07:53.827Z,20.7
2018-07-05T07:08:55.456Z,20.6
2018-07-05T07:09:57.084Z,20.7
2018-07-05T07:10:58.707Z,20.5
2018-07-05T07:12:00.326Z,20.5
2018-07-05T07:13:01.951Z,20.5
2018-07-05T07:14:03.579Z,20.4
2018-07-05T07:15:05.200Z,20.4
2018-07-05T07:16:06.930Z,20.5
2018-07-05T07:17:08.453Z,20.4
2018-07-05T07:18:10.085Z,20.3
2018-07-05T07:19:11.699Z,20.4
2018-07-05T07:20:13.329Z,20.5
2018-07-05T07:21:14.947Z,20.4
2018-07-05T07:22:16.578Z,20.4
2018-07-05T07:23:18.199Z,20.4
2018-07-05T07:24:19.825Z,20.4
2018-07-05T07:25:21.451Z,20.4
2018-07-05T07:26:23.079Z,20.4
2018-07-05T07:27:24.699Z,20.4
2018-07-05T07:28:26.325Z,20.3
2018-07-05T07:29:27.950Z,20.4
2018-07-05T07:30:30.350Z,20.4
2018-07-05T07:31:31.997Z,20.3
2018-07-05T07:32:33.603Z,20.3
2018-07-05T07:33:35.223Z,20.3
2018-07-05T07:34:36.847Z,20.4
2018-07-05T07:35:38.474Z,20.4
2018-07-05T07:36:40.100Z,20.4
2018-07-05T07:37:41.733Z,20.4
2018-07-05T07:38:43.357Z,20.4
2018-07-05T07:39:44.981Z,20.5
2018-07-05T07:40:46.607Z,20.5
2018-07-05T07:41:48.227Z,20.5
2018-07-05T07:42:49.856Z,20.5
2018-07-05T07:43:51.476Z,20.5
2018-07-05T07:44:53.102Z,20.5
2018-07-05T07:45:54.730Z,20.5
2018-07-05T07:46:56.354Z,20.5
2018-07-05T07:47:57.980Z,20.3
2018-07-05T07:48:59.606Z,20.5
2018-07-05T07:50:01.226Z,20.5
2018-07-05T07:51:02.853Z,20.5
2018-07-05T07:52:04.475Z,20.5
2018-07-05T07:53:06.107Z,20.7
2018-07-05T07:54:07.726Z,20.7
2018-07-05T07:55:09.351Z,20.7
2018-07-05T07:56:10.977Z,20.8
2018-07-05T07:57:12.600Z,20.9
2018-07-05T07:58:14.245Z,20.8
2018-07-05T07:59:15.852Z,20.9
2018-07-05T08:00:17.475Z,20.9
2018-07-05T08:01:19.102Z,21.0
2018-07-05T08:02:20.732Z,21.1
2018-07-05T08:03:22.352Z,21.1
2018-07-05T08:04:23.981Z,21.3
2018-07-05T08:05:25.609Z,21.3
2018-07-05T08:06:27.231Z,21.4
2018-07-05T08:07:28.853Z,21.4
2018-07-05T08:08:30.486Z,21.5
2018-07-05T08:09:32.109Z,21.6
2018-07-05T08:10:33.733Z,21.8
2018-07-05T08:11:35.360Z,21.9
2018-07-05T08:12:36.984Z,22.1
2018-07-05T08:13:38.613Z,22.4
2018-07-05T08:14:40.244Z,22.6
2018-07-05T08:15:41.877Z,23.3
2018-07-05T08:16:43.505Z,23.7
2018-07-05T08:17:45.125Z,23.7
2018-07-05T08:18:46.751Z,23.7
2018-07-05T08:19:48.378Z,23.7
2018-07-05T08:20:49.998Z,23.6
2018-07-05T08:21:51.624Z,23.6
2018-07-05T08:22:53.255Z,23.7
2018-07-05T08:23:54.881Z,23.5
2018-07-05T08:24:56.502Z,23.5
2018-07-05T08:25:58.128Z,23.5
2018-07-05T08:26:59.754Z,23.4
2018-07-05T08:28:01.376Z,23.4
2018-07-05T08:29:03.004Z,23.3
2018-07-05T08:30:04.627Z,23.5
2018-07-05T08:31:06.255Z,23.4
2018-07-05T08:32:07.875Z,23.4
2018-07-05T08:33:09.503Z,23.5
2018-07-05T08:34:11.127Z,23.5
2018-07-05T08:35:12.754Z,23.4
2018-07-05T08:36:14.378Z,23.5
2018-07-05T08:37:16.059Z,23.5
2018-07-05T08:38:17.629Z,23.4
2018-07-05T08:39:19.257Z,23.5
2018-07-05T08:40:20.877Z,23.6
2018-07-05T08:41:22.509Z,23.5
2018-07-05T08:42:24.136Z,23.5
2018-07-05T08:43:25.764Z,23.6
2018-07-05T08:44:27.394Z,23.6
2018-07-05T08:45:29.017Z,23.7
2018-07-05T08:46:30.650Z,23.7
2018-07-05T08:47:32.275Z,23.8
2018-07-05T08:48:33.905Z,23.9
2018-07-05T08:49:35.529Z,24.1
2018-07-05T08:50:37.176Z,24.1
2018-07-05T08:51:38.789Z,24.2
2018-07-05T08:52:40.412Z,24.2
2018-07-05T08:53:42.045Z,24.2
2018-07-05T08:54:43.670Z,24.3
2018-07-05T08:55:45.306Z,24.4
2018-07-05T08:56:46.931Z,24.6
2018-07-05T08:57:48.557Z,24.7
2018-07-05T08:58:50.193Z,24.8
2018-07-05T08:59:51.814Z,24.8
2018-07-05T09:00:53.442Z,25.0
2018-07-05T09:01:55.070Z,25.1
2018-07-05T09:02:56.695Z,25.2
2018-07-05T09:03:58.327Z,25.2
2018-07-05T09:04:59.961Z,25.3
2018-07-05T09:06:01.588Z,25.5
2018-07-05T09:07:03.219Z,25.5
2018-07-05T09:08:04.862Z,25.7
2018-07-05T09:09:06.501Z,25.8
2018-07-05T09:10:08.120Z,25.9
2018-07-05T09:11:09.745Z,26.0
2018-07-05T09:12:11.381Z,26.3
2018-07-05T09:13:13.009Z,26.3
2018-07-05T09:14:14.637Z,26.5
2018-07-05T09:15:16.271Z,26.7
2018-07-05T09:16:17.894Z,26.8
2018-07-05T09:17:19.533Z,26.9
2018-07-05T09:18:21.188Z,27.1
2018-07-05T09:19:22.787Z,27.3
2018-07-05T09:20:24.418Z,27.4
2018-07-05T09:21:26.044Z,27.6
2018-07-05T09:22:27.674Z,28.0
2018-07-05T09:23:29.399Z,28.4
2018-07-05T09:24:30.930Z,29.3
2018-07-05T09:25:32.557Z,30.4
2018-07-05T09:26:34.196Z,30.8
2018-07-05T09:27:35.824Z,31.0
2018-07-05T09:28:37.457Z,31.5
2018-07-05T09:29:39.086Z,32.2
2018-07-05T09:30:40.727Z,32.8
2018-07-05T09:31:42.354Z,33.0
2018-07-05T09:32:43.992Z,33.3
2018-07-05T09:33:45.623Z,33.9
2018-07-05T09:34:47.263Z,34.7
2018-07-05T09:35:48.892Z,35.0
2018-07-05T09:36:50.533Z,35.1
2018-07-05T09:37:52.178Z,35.1
2018-07-05T09:38:53.817Z,35.2
2018-07-05T09:39:55.456Z,35.3
2018-07-05T09:40:57.091Z,35.7
2018-07-05T09:41:58.732Z,35.5
2018-07-05T09:43:00.359Z,35.2
2018-07-05T09:44:02.005Z,34.7
2018-07-05T09:45:03.637Z,34.3
2018-07-05T09:46:05.276Z,34.2
2018-07-05T09:47:06.958Z,34.1
2018-07-05T09:48:08.550Z,33.6
2018-07-05T09:49:10.188Z,33.5
2018-07-05T09:50:11.822Z,33.3
2018-07-05T09:51:13.459Z,32.8
2018-07-05T09:52:15.106Z,32.3
2018-07-05T09:53:16.728Z,32.2
2018-07-05T09:54:18.367Z,31.9
2018-07-05T09:55:19.996Z,31.8
2018-07-05T09:56:21.630Z,31.5
2018-07-05T09:57:23.268Z,31.4
2018-07-05T09:58:24.896Z,31.3
2018-07-05T09:59:26.533Z,31.1
2018-07-05T10:00:28.167Z,31.0
2018-07-05T10:01:29.804Z,31.0
2018-07-05T10:02:31.434Z,31.0
2018-07-05T10:03:33.150Z,30.9
2018-07-05T10:04:34.709Z,30.8
2018-07-05T10:05:36.338Z,30.6
2018-07-05T10:06:37.967Z,30.8
2018-07-05T10:07:39.605Z,30.5
2018-07-05T10:08:41.237Z,30.4
2018-07-05T10:09:42.869Z,30.1
2018-07-05T10:10:44.501Z,29.9
2018-07-05T10:11:46.136Z,29.7
2018-07-05T10:12:47.765Z,29.6
2018-07-05T10:13:49.703Z,29.5
2018-07-05T10:14:51.032Z,29.4
2018-07-05T10:15:52.668Z,29.5
2018-07-05T10:16:54.296Z,29.5
2018-07-05T10:17:55.936Z,29.6
2018-07-05T10:18:57.561Z,29.8
2018-07-05T10:19:59.196Z,30.1
2018-07-05T10:21:01.476Z,30.2
2018-07-05T10:22:03.104Z,30.7
2018-07-05T10:23:04.739Z,31.2
2018-07-05T10:24:06.372Z,31.4
2018-07-05T10:25:08.013Z,31.8
2018-07-05T10:26:09.641Z,32.1
2018-07-05T10:27:11.278Z,32.0
2018-07-05T10:28:12.907Z,32.0
2018-07-05T10:29:14.539Z,32.1
2018-07-05T10:30:16.177Z,32.2
2018-07-05T10:31:17.817Z,32.0
2018-07-05T10:32:19.444Z,32.3
2018-07-05T10:33:21.078Z,32.7
2018-07-05T10:34:22.710Z,32.8
2018-07-05T10:35:24.343Z,33.1
2018-07-05T10:36:25.983Z,33.5
2018-07-05T10:37:27.615Z,34.0
2018-07-05T10:38:29.260Z,34.3
2018-07-05T10:39:30.906Z,34.5
2018-07-05T10:40:32.531Z,35.0
2018-07-05T10:41:34.161Z,35.4
2018-07-05T10:42:35.802Z,35.6
2018-07-05T10:43:37.437Z,35.9
2018-07-05T10:44:39.078Z,35.8
2018-07-05T10:45:40.713Z,35.6
2018-07-05T10:46:42.354Z,35.6
2018-07-05T10:47:43.993Z,36.1
2018-07-05T10:48:45.625Z,36.4
2018-07-05T10:49:47.263Z,37.0
2018-07-05T10:50:48.902Z,36.8
2018-07-05T10:51:50.539Z,37.1
2018-07-05T10:52:52.183Z,37.5
2018-07-05T10:53:53.826Z,37.5
2018-07-05T10:54:55.457Z,37.9
2018-07-05T10:55:57.093Z,38.1
2018-07-05T10:56:58.735Z,38.2
2018-07-05T10:58:00.378Z,38.5
2018-07-05T10:59:02.012Z,38.5
2018-07-05T11:00:03.651Z,38.3
2018-07-05T11:01:05.308Z,37.9
2018-07-05T11:02:06.923Z,37.9
2018-07-05T11:03:08.566Z,37.6
2018-07-05T11:04:10.201Z,37.4
2018-07-05T11:05:12.572Z,37.5
2018-07-05T11:06:14.205Z,37.2
2018-07-05T11:07:15.849Z,37.4
2018-07-05T11:08:17.486Z,37.4
2018-07-05T11:09:19.127Z,37.5
2018-07-05T11:10:20.762Z,37.3
2018-07-05T11:11:22.401Z,37.2
2018-07-05T11:12:24.037Z,37.5
2018-07-05T11:13:26.008Z,37.6
2018-07-05T11:14:27.701Z,37.5
2018-07-05T11:15:29.284Z,37.5
2018-07-05T11:16:30.922Z,37.4
2018-07-05T11:17:32.560Z,37.7
2018-07-05T11:18:34.191Z,37.7
2018-07-05T11:19:35.834Z,37.6
2018-07-05T11:20:37.471Z,37.7
2018-07-05T11:21:39.113Z,37.8
2018-07-05T11:22:40.746Z,38.0
2018-07-05T11:23:42.386Z,37.8
2018-07-05T11:24:44.022Z,37.9
2018-07-05T11:25:45.662Z,37.7
2018-07-05T11:26:47.298Z,37.7
2018-07-05T11:27:48.939Z,37.2
2018-07-05T11:28:50.580Z,37.1
2018-07-05T11:29:52.218Z,37.4
2018-07-05T11:30:53.854Z,37.4
2018-07-05T11:31:55.495Z,37.4
2018-07-05T11:32:57.129Z,37.1
2018-07-05T11:33:58.771Z,36.4
2018-07-05T11:35:00.412Z,36.6
2018-07-05T11:36:02.059Z,36.7
2018-07-05T11:37:03.697Z,37.0
2018-07-05T11:38:05.329Z,36.8
2018-07-05T11:39:06.970Z,36.8
2018-07-05T11:40:08.610Z,36.6
2018-07-05T11:41:10.243Z,36.5
2018-07-05T11:42:11.885Z,36.3
2018-07-05T11:43:13.520Z,36.3
2018-07-05T11:44:15.168Z,36.4
2018-07-05T11:45:16.808Z,36.6
2018-07-05T11:46:18.434Z,36.8
2018-07-05T11:47:20.068Z,37.2
2018-07-05T11:48:21.713Z,37.3
2018-07-05T11:49:23.348Z,37.5
2018-07-05T11:50:24.983Z,37.4
2018-07-05T11:51:26.624Z,37.4
2018-07-05T11:52:28.261Z,37.4
2018-07-05T11:53:29.899Z,37.1
2018-07-05T11:54:31.532Z,37.4
2018-07-05T11:55:33.164Z,37.5
2018-07-05T11:56:34.806Z,37.8
2018-07-05T11:57:36.437Z,37.6
2018-07-05T11:58:38.117Z,37.7
2018-07-05T11:59:39.708Z,37.5
2018-07-05T12:00:41.351Z,36.9
2018-07-05T12:01:42.988Z,36.5
2018-07-05T12:02:44.631Z,36.0
2018-07-05T12:03:46.258Z,35.6
2018-07-05T12:04:47.900Z,35.2
2018-07-05T12:05:49.535Z,35.0
2018-07-05T12:06:51.565Z,35.0
2018-07-05T12:07:53.194Z,34.9
2018-07-05T12:08:54.836Z,34.7
2018-07-05T12:09:56.470Z,34.4
2018-07-05T12:10:58.107Z,33.9
2018-07-05T12:11:59.744Z,33.6
2018-07-05T12:13:01.383Z,33.5
2018-07-05T12:14:03.009Z,33.7
2018-07-05T12:15:04.649Z,33.8
2018-07-05T12:16:06.284Z,34.1
2018-07-05T12:17:07.916Z,34.2
2018-07-05T12:18:09.546Z,34.5
2018-07-05T12:19:11.185Z,34.6
2018-07-05T12:20:12.842Z,34.8
2018-07-05T12:21:14.448Z,35.0
2018-07-05T12:22:16.127Z,35.2
2018-07-05T12:23:17.713Z,35.5
2018-07-05T12:24:19.359Z,35.4
2018-07-05T12:25:20.979Z,35.5
2018-07-05T12:26:22.624Z,35.6
2018-07-05T12:27:24.259Z,35.3
2018-07-05T12:28:25.884Z,35.4
2018-07-05T12:29:27.631Z,35.1
2018-07-05T12:30:29.148Z,34.7
2018-07-05T12:31:30.785Z,34.6
2018-07-05T12:32:32.420Z,34.7
2018-07-05T12:33:34.096Z,34.5
2018-07-05T12:34:35.686Z,34.7
2018-07-05T12:35:37.323Z,34.8
2018-07-05T12:36:38.959Z,34.7
2018-07-05T12:37:40.586Z,35.1
2018-07-05T12:38:42.219Z,35.2
2018-07-05T12:39:43.858Z,35.2
2018-07-05T12:40:45.492Z,35.3
2018-07-05T12:41:47.123Z,35.0
2018-07-05T12:42:48.760Z,35.1
2018-07-05T12:43:50.395Z,35.2
2018-07-05T12:44:52.037Z,35.2
2018-07-05T12:45:53.669Z,35.4
2018-07-05T12:46:55.308Z,35.6
2018-07-05T12:47:56.938Z,35.6
2018-07-05T12:48:58.576Z,35.6
2018-07-05T12:50:00.212Z,35.8
2018-07-05T12:51:01.840Z,35.6
2018-07-05T12:52:03.469Z,35.5
2018-07-05T12:53:05.101Z,35.2
2018-07-05T12:54:06.738Z,35.3
2018-07-05T12:55:08.371Z,35.8
2018-07-05T12:56:10.013Z,35.6
2018-07-05T12:57:11.646Z,35.5
2018-07-05T12:58:13.275Z,35.4
2018-07-05T12:59:14.914Z,35.3
2018-07-05T13:00:16.551Z,35.3
2018-07-05T13:01:18.190Z,35.4
2018-07-05T13:02:19.823Z,35.7
2018-07-05T13:03:21.459Z,36.0
2018-07-05T13:04:23.103Z,36.3
2018-07-05T13:05:24.726Z,36.7
2018-07-05T13:06:26.355Z,36.7
2018-07-05T13:07:27.990Z,36.8
2018-07-05T13:08:29.629Z,37.1
2018-07-05T13:09:31.262Z,37.0
2018-07-05T13:10:32.902Z,36.8
2018-07-05T13:11:34.542Z,36.1
2018-07-05T13:12:36.169Z,36.1
2018-07-05T13:13:37.799Z,35.8
2018-07-05T13:14:39.435Z,35.8
2018-07-05T13:15:41.074Z,35.8
2018-07-05T13:16:42.712Z,35.9
2018-07-05T13:17:44.350Z,36.1
2018-07-05T13:18:45.984Z,35.6
2018-07-05T13:19:47.616Z,35.3
2018-07-05T13:20:49.253Z,35.0
2018-07-05T13:21:50.889Z,35.0
2018-07-05T13:22:52.518Z,34.7
2018-07-05T13:23:54.158Z,34.6
2018-07-05T13:24:55.787Z,34.3
2018-07-05T13:25:57.421Z,34.1
2018-07-05T13:26:59.050Z,34.1
2018-07-05T13:28:00.687Z,33.8
2018-07-05T13:29:02.319Z,33.6
2018-07-05T13:30:03.956Z,33.5
2018-07-05T13:31:05.584Z,33.5
2018-07-05T13:32:07.223Z,33.2
2018-07-05T13:33:08.889Z,33.1
2018-07-05T13:34:11.082Z,32.9
2018-07-05T13:35:12.711Z,32.8
2018-07-05T13:36:14.340Z,32.6
2018-07-05T13:37:15.976Z,32.5
2018-07-05T13:38:17.606Z,32.2
2018-07-05T13:39:19.246Z,32.2
2018-07-05T13:40:20.877Z,32.1
2018-07-05T13:41:22.498Z,31.9